Wolgastern — CQLH — position and weather

sailwx.info

Track history (hours):
 
Tides and Currents Weather Stations Pressure Air Temp Water Temp Dewpoint Dewpoint Depression Visibility Wind Speed Wind Dir Waves Ship Positions

Wolgastern

Last reported at 2017-Mar-23 05:04 UTC. Time now 2017-Mar-23 06:15 UTC.
Position N 55°03' E 017°54'.

Length 162 m; draft 6.7 m.

Type: Tanker. MMSI: 255804950.

Date/timePositionNaut miles runAvg speedWind from/ knotsBaromVisibWave heightAir tempDewpointWater temp
2017-Mar-23 05:04N 55°03' E 017°54'0 0.0
2017-Mar-23 04:16N 55°03' E 017°54'0 0.0
2017-Mar-23 03:18N 55°03' E 017°54'0 0.0
2017-Mar-23 02:30N 55°03' E 017°54'0 0.0
2017-Mar-23 01:26N 55°03' E 017°54'0 0.0
2017-Mar-22 09:18N 55°03' E 017°54'6 7.9
2017-Mar-22 08:33N 55°01' E 018°04'1110.6
2017-Mar-22 07:33N 54°59' E 018°22'1010.6
2017-Mar-22 06:33N 54°54' E 018°39'1111.3
2017-Mar-22 05:33N 54°48' E 018°54'1010.5
2017-Mar-22 04:33N 54°37' E 018°56'1110.7
2017-Mar-22 03:33N 54°32' E 018°40'3 3.3
2017-Mar-22 02:31N 54°32' E 018°34'0 0.0
2017-Mar-22 01:31N 54°32' E 018°34'0 0.0
2017-Mar-22 00:33N 54°32' E 018°34'0 0.0
2017-Mar-21 23:33N 54°32' E 018°34'0 0.0
2017-Mar-21 22:32N 54°32' E 018°34'0 0.0
2017-Mar-21 21:32N 54°32' E 018°34'0 0.0
2017-Mar-21 20:31N 54°32' E 018°34'0 0.0
2017-Mar-21 19:31N 54°32' E 018°34'0 0.0
2017-Mar-21 18:31N 54°32' E 018°34'0 0.0
2017-Mar-21 17:33N 54°32' E 018°34'0 0.0
2017-Mar-21 16:33N 54°32' E 018°34'0 0.0
2017-Mar-20 18:24N 54°32' E 018°34'3 3.5
2017-Mar-20 17:33N 54°32' E 018°39'2 2.4
2017-Mar-20 16:32N 54°31' E 018°43'0 0.0
2017-Mar-20 15:32N 54°31' E 018°43'0 0.0
2017-Mar-20 14:31N 54°31' E 018°43'0 0.0
2017-Mar-20 13:31N 54°31' E 018°43'0 0.0
2017-Mar-20 12:33N 54°31' E 018°43'0 0.0
2017-Mar-20 11:33N 54°31' E 018°43'0 0.0
2017-Mar-20 10:33N 54°31' E 018°43'2 1.7
2017-Mar-20 09:34N 54°31' E 018°45'1010.5
2017-Mar-20 08:34N 54°40' E 018°56'9 8.9
2017-Mar-20 07:33N 54°48' E 018°53'1111.2
2017-Mar-20 06:33N 54°55' E 018°37'1210.4
2017-Mar-20 05:24N 54°57' E 018°16'911.0
2017-Mar-20 04:33N 54°56' E 018°00'17611.0
2017-Mar-19 12:33N 54°45' E 012°55'1111.1
2017-Mar-19 11:34N 54°42' E 012°37'2411.4
2017-Mar-19 09:28N 54°24' E 012°08'1111.3
2017-Mar-19 08:31N 54°25' E 011°50'1111.6
2017-Mar-19 07:34N 54°29' E 011°32'1212.2
2017-Mar-19 06:34N 54°34' E 011°13'1211.9
2017-Mar-19 05:34N 54°41' E 010°56'1010.0
2017-Mar-19 04:34N 54°50' E 010°52'1212.2
2017-Mar-19 03:34N 55°01' E 011°01'1312.2
2017-Mar-19 02:32N 55°14' E 011°06'4 3.9
2017-Mar-19 01:32N 55°14' E 011°12'3 3.0
2017-Mar-19 00:31N 55°12' E 011°15'1 0.0
2017-Mar-16 22:33N 55°12' E 011°14'8 6.9
2017-Mar-16 21:27N 55°16' E 011°02'1 0.5
2017-Mar-16 20:25N 55°15' E 011°02'0 0.0
2017-Mar-16 19:16N 55°15' E 011°02'0 0.0
2017-Mar-16 18:33N 55°15' E 011°02'0 0.0
2017-Mar-16 15:08N 55°15' E 011°02'0 0.0
2017-Mar-16 14:33N 55°15' E 011°02'0 0.0
2017-Mar-16 12:31N 55°15' E 011°02'0 0.0
2017-Mar-16 11:33N 55°15' E 011°02'0 0.0
2017-Mar-16 09:14N 55°15' E 011°02'0 0.0
2017-Mar-16 07:30N 55°15' E 011°02'0 0.0
2017-Mar-15 17:33N 55°15' E 011°02'0 0.0
2017-Mar-15 14:05N 55°15' E 011°02'0 0.0
2017-Mar-15 12:28N 55°15' E 011°02'0 0.0
2017-Mar-15 11:22N 55°15' E 011°02'0 0.0
2017-Mar-15 08:23N 55°15' E 011°02'0 0.0
2017-Mar-15 04:08N 55°15' E 011°02'0 0.0
2017-Mar-15 03:33N 55°15' E 011°02'0 0.0
2017-Mar-14 13:27N 55°15' E 011°02'0 0.0
2017-Mar-14 08:13N 55°15' E 011°02'0 0.0
2017-Mar-14 07:18N 55°15' E 011°02'0 0.0
2017-Mar-14 02:19N 55°15' E 011°02'0 0.0
2017-Mar-14 00:30N 55°15' E 011°02'0 0.0
2017-Mar-13 18:16N 55°15' E 011°02'0 0.0
2017-Mar-13 11:22N 55°15' E 011°02'0 0.0
2017-Mar-13 05:31N 55°15' E 011°02'  
Track history (hours):
 
Tides and Currents Weather Stations Pressure Air Temp Water Temp Dewpoint Dewpoint Depression Visibility Wind Speed Wind Dir Waves Ship Positions

Wolgastern

Last reported at 2017-Mar-23 05:04 UTC. Time now 2017-Mar-23 06:15 UTC.
Position N 55°03' E 017°54'.

Length 162 m; draft 6.7 m.

Type: Tanker. MMSI: 255804950.

Date/timePositionNaut miles runAvg speedWind from/ knotsBaromVisibWave heightAir tempDewpointWater temp
2017-Mar-23 05:04N 55°03' E 017°54'0 0.0
2017-Mar-23 04:16N 55°03' E 017°54'0 0.0
2017-Mar-23 03:18N 55°03' E 017°54'0 0.0
2017-Mar-23 02:30N 55°03' E 017°54'0 0.0
2017-Mar-23 01:26N 55°03' E 017°54'0 0.0
2017-Mar-22 09:18N 55°03' E 017°54'6 7.9
2017-Mar-22 08:33N 55°01' E 018°04'1110.6
2017-Mar-22 07:33N 54°59' E 018°22'1010.6
2017-Mar-22 06:33N 54°54' E 018°39'1111.3
2017-Mar-22 05:33N 54°48' E 018°54'1010.5
2017-Mar-22 04:33N 54°37' E 018°56'1110.7
2017-Mar-22 03:33N 54°32' E 018°40'3 3.3
2017-Mar-22 02:31N 54°32' E 018°34'0 0.0
2017-Mar-22 01:31N 54°32' E 018°34'0 0.0
2017-Mar-22 00:33N 54°32' E 018°34'0 0.0
2017-Mar-21 23:33N 54°32' E 018°34'0 0.0
2017-Mar-21 22:32N 54°32' E 018°34'0 0.0
2017-Mar-21 21:32N 54°32' E 018°34'0 0.0
2017-Mar-21 20:31N 54°32' E 018°34'0 0.0
2017-Mar-21 19:31N 54°32' E 018°34'0 0.0
2017-Mar-21 18:31N 54°32' E 018°34'0 0.0
2017-Mar-21 17:33N 54°32' E 018°34'0 0.0
2017-Mar-21 16:33N 54°32' E 018°34'0 0.0
2017-Mar-20 18:24N 54°32' E 018°34'3 3.5
2017-Mar-20 17:33N 54°32' E 018°39'2 2.4
2017-Mar-20 16:32N 54°31' E 018°43'0 0.0
2017-Mar-20 15:32N 54°31' E 018°43'0 0.0
2017-Mar-20 14:31N 54°31' E 018°43'0 0.0
2017-Mar-20 13:31N 54°31' E 018°43'0 0.0
2017-Mar-20 12:33N 54°31' E 018°43'0 0.0
2017-Mar-20 11:33N 54°31' E 018°43'0 0.0
2017-Mar-20 10:33N 54°31' E 018°43'2 1.7
2017-Mar-20 09:34N 54°31' E 018°45'1010.5
2017-Mar-20 08:34N 54°40' E 018°56'9 8.9
2017-Mar-20 07:33N 54°48' E 018°53'1111.2
2017-Mar-20 06:33N 54°55' E 018°37'1210.4
2017-Mar-20 05:24N 54°57' E 018°16'911.0
2017-Mar-20 04:33N 54°56' E 018°00'17611.0
2017-Mar-19 12:33N 54°45' E 012°55'1111.1
2017-Mar-19 11:34N 54°42' E 012°37'2411.4
2017-Mar-19 09:28N 54°24' E 012°08'1111.3
2017-Mar-19 08:31N 54°25' E 011°50'1111.6
2017-Mar-19 07:34N 54°29' E 011°32'1212.2
2017-Mar-19 06:34N 54°34' E 011°13'1211.9
2017-Mar-19 05:34N 54°41' E 010°56'1010.0
2017-Mar-19 04:34N 54°50' E 010°52'1212.2
2017-Mar-19 03:34N 55°01' E 011°01'1312.2
2017-Mar-19 02:32N 55°14' E 011°06'4 3.9
2017-Mar-19 01:32N 55°14' E 011°12'3 3.0
2017-Mar-19 00:31N 55°12' E 011°15'1 0.0
2017-Mar-16 22:33N 55°12' E 011°14'8 6.9
2017-Mar-16 21:27N 55°16' E 011°02'1 0.5
2017-Mar-16 20:25N 55°15' E 011°02'0 0.0
2017-Mar-16 19:16N 55°15' E 011°02'0 0.0
2017-Mar-16 18:33N 55°15' E 011°02'0 0.0
2017-Mar-16 15:08N 55°15' E 011°02'0 0.0
2017-Mar-16 14:33N 55°15' E 011°02'0 0.0
2017-Mar-16 12:31N 55°15' E 011°02'0 0.0
2017-Mar-16 11:33N 55°15' E 011°02'0 0.0
2017-Mar-16 09:14N 55°15' E 011°02'0 0.0
2017-Mar-16 07:30N 55°15' E 011°02'0 0.0
2017-Mar-15 17:33N 55°15' E 011°02'0 0.0
2017-Mar-15 14:05N 55°15' E 011°02'0 0.0
2017-Mar-15 12:28N 55°15' E 011°02'0 0.0
2017-Mar-15 11:22N 55°15' E 011°02'0 0.0
2017-Mar-15 08:23N 55°15' E 011°02'0 0.0
2017-Mar-15 04:08N 55°15' E 011°02'0 0.0
2017-Mar-15 03:33N 55°15' E 011°02'0 0.0
2017-Mar-14 13:27N 55°15' E 011°02'0 0.0
2017-Mar-14 08:13N 55°15' E 011°02'0 0.0
2017-Mar-14 07:18N 55°15' E 011°02'0 0.0
2017-Mar-14 02:19N 55°15' E 011°02'0 0.0
2017-Mar-14 00:30N 55°15' E 011°02'0 0.0
2017-Mar-13 18:16N 55°15' E 011°02'0 0.0
2017-Mar-13 11:22N 55°15' E 011°02'0 0.0
2017-Mar-13 05:31N 55°15' E 011°02'  

Dump ship's entire track history